createdAt,value
2018-03-26T00:01:34.203Z,9.08
2018-03-26T00:04:01.664Z,8.89
2018-03-26T00:06:29.096Z,9.05
2018-03-26T00:08:56.550Z,8.64
2018-03-26T00:11:24.040Z,8.75
2018-03-26T00:13:51.540Z,8.98
2018-03-26T00:16:19.085Z,9.04
2018-03-26T00:18:46.519Z,9.04
2018-03-26T00:21:13.976Z,9.05
2018-03-26T00:23:41.415Z,9.13
2018-03-26T00:26:08.882Z,9.16
2018-03-26T00:28:36.299Z,9.08
2018-03-26T00:31:03.757Z,8.95
2018-03-26T00:33:31.206Z,8.90
2018-03-26T00:35:58.658Z,8.71
2018-03-26T00:38:26.084Z,8.38
2018-03-26T00:40:53.549Z,8.43
2018-03-26T00:43:20.962Z,8.43
2018-03-26T00:45:48.392Z,8.52
2018-03-26T00:48:15.861Z,8.43
2018-03-26T00:50:43.462Z,8.34
2018-03-26T00:53:11.041Z,8.25
2018-03-26T00:55:38.489Z,8.27
2018-03-26T00:58:05.954Z,8.28
2018-03-26T01:00:33.383Z,8.33
2018-03-26T01:03:01.569Z,8.55
2018-03-26T01:05:29.037Z,8.36
2018-03-26T01:07:56.503Z,8.43
2018-03-26T01:10:23.943Z,8.48
2018-03-26T01:12:51.389Z,8.41
2018-03-26T01:15:18.806Z,8.22
2018-03-26T01:17:46.290Z,8.55
2018-03-26T01:20:13.765Z,8.57
2018-03-26T01:22:41.226Z,8.29
2018-03-26T01:25:08.679Z,8.18
2018-03-26T01:27:36.141Z,8.36
2018-03-26T01:30:03.596Z,8.23
2018-03-26T01:32:31.026Z,8.30
2018-03-26T01:34:58.492Z,8.29
2018-03-26T01:37:25.969Z,8.37
2018-03-26T01:39:53.434Z,8.29
2018-03-26T01:42:20.890Z,8.41
2018-03-26T01:44:48.349Z,7.88
2018-03-26T01:47:15.770Z,7.79
2018-03-26T01:49:43.336Z,7.90
2018-03-26T01:52:10.754Z,7.90
2018-03-26T01:54:38.185Z,7.84
2018-03-26T01:57:06.376Z,7.89
2018-03-26T01:59:33.803Z,7.94
2018-03-26T02:02:01.269Z,7.80
2018-03-26T02:04:28.795Z,7.72
2018-03-26T02:06:56.239Z,7.68
2018-03-26T02:09:24.532Z,7.63
2018-03-26T02:11:52.082Z,7.59
2018-03-26T02:14:19.770Z,7.62
2018-03-26T02:16:47.305Z,7.61
2018-03-26T02:19:14.766Z,7.61
2018-03-26T02:21:42.182Z,7.79
2018-03-26T02:24:09.640Z,7.52
2018-03-26T02:26:37.128Z,7.30
2018-03-26T02:29:04.561Z,7.38
2018-03-26T02:31:32.002Z,7.38
2018-03-26T02:33:59.461Z,7.30
2018-03-26T02:36:26.901Z,7.29
2018-03-26T02:38:54.338Z,7.43
2018-03-26T02:41:21.898Z,7.43
2018-03-26T02:43:49.357Z,7.40
2018-03-26T02:46:16.776Z,7.29
2018-03-26T02:48:44.211Z,7.25
2018-03-26T02:51:11.720Z,7.20
2018-03-26T02:53:39.226Z,7.09
2018-03-26T02:56:06.676Z,7.04
2018-03-26T02:58:34.124Z,6.98
2018-03-26T03:01:01.604Z,7.09
2018-03-26T03:03:29.059Z,6.96
2018-03-26T03:05:56.528Z,6.92
2018-03-26T03:08:23.956Z,6.91
2018-03-26T03:10:51.414Z,6.85
2018-03-26T03:13:18.850Z,6.79
2018-03-26T03:15:46.312Z,6.78
2018-03-26T03:18:13.802Z,6.76
2018-03-26T03:20:41.294Z,6.73
2018-03-26T03:23:08.779Z,6.69
2018-03-26T03:25:36.312Z,6.73
2018-03-26T03:28:03.768Z,6.65
2018-03-26T03:30:31.207Z,6.57
2018-03-26T03:32:58.635Z,6.45
2018-03-26T03:35:26.246Z,6.47
2018-03-26T03:37:53.846Z,6.56
2018-03-26T03:40:21.279Z,6.32
2018-03-26T03:42:48.728Z,6.37
2018-03-26T03:45:16.900Z,6.36
2018-03-26T03:47:44.334Z,6.27
2018-03-26T03:50:11.793Z,6.20
2018-03-26T03:52:39.233Z,6.22
2018-03-26T03:55:06.742Z,6.31
2018-03-26T03:57:34.324Z,6.26
2018-03-26T04:00:01.749Z,6.43
2018-03-26T04:02:29.230Z,6.48
2018-03-26T04:04:56.688Z,6.62
2018-03-26T04:07:24.144Z,6.73
2018-03-26T04:09:51.580Z,6.85
2018-03-26T04:12:19.039Z,6.86
2018-03-26T04:14:46.552Z,6.74
2018-03-26T04:17:14.273Z,6.71
2018-03-26T04:19:41.779Z,6.77
2018-03-26T04:22:09.361Z,6.87
2018-03-26T04:24:36.921Z,6.85
2018-03-26T04:27:04.586Z,6.89
2018-03-26T04:29:32.027Z,6.88
2018-03-26T04:31:59.478Z,7.01
2018-03-26T04:34:27.097Z,7.00
2018-03-26T04:36:54.660Z,7.08
2018-03-26T04:39:22.099Z,7.08
2018-03-26T04:41:49.532Z,7.12
2018-03-26T04:44:16.989Z,6.97
2018-03-26T04:46:44.423Z,6.95
2018-03-26T04:49:11.879Z,7.02
2018-03-26T04:51:41.070Z,6.97
2018-03-26T04:54:08.885Z,7.04
2018-03-26T04:56:36.384Z,6.94
2018-03-26T04:59:03.848Z,7.17
2018-03-26T05:01:31.271Z,7.20
2018-03-26T05:03:58.727Z,7.20
2018-03-26T05:06:26.313Z,7.06
2018-03-26T05:08:53.769Z,6.96
2018-03-26T05:11:21.227Z,7.09
2018-03-26T05:13:48.660Z,7.09
2018-03-26T05:16:16.113Z,7.21
2018-03-26T05:18:43.566Z,7.02
2018-03-26T05:21:11.078Z,7.00
2018-03-26T05:23:38.560Z,6.92
2018-03-26T05:26:06.039Z,6.91
2018-03-26T05:28:33.470Z,6.94
2018-03-26T05:31:01.139Z,6.90
2018-03-26T05:33:29.462Z,6.84
2018-03-26T05:35:57.030Z,6.62
2018-03-26T05:38:24.619Z,6.72
2018-03-26T05:40:52.224Z,6.89
2018-03-26T05:43:19.855Z,6.86
2018-03-26T05:45:47.287Z,6.92
2018-03-26T05:48:15.288Z,6.91
2018-03-26T05:50:43.985Z,6.97
2018-03-26T05:53:11.446Z,7.11
2018-03-26T05:55:38.876Z,7.07
2018-03-26T05:58:06.412Z,7.24
2018-03-26T06:00:33.931Z,7.19
2018-03-26T06:03:01.411Z,7.03
2018-03-26T06:05:28.856Z,7.16
2018-03-26T06:07:56.298Z,6.99
2018-03-26T06:10:23.899Z,7.08
2018-03-26T06:12:51.340Z,7.20
2018-03-26T06:15:18.857Z,7.05
2018-03-26T06:17:46.308Z,6.97
2018-03-26T06:20:13.912Z,7.04
2018-03-26T06:22:41.340Z,7.11
2018-03-26T06:25:08.793Z,7.12
2018-03-26T06:27:36.227Z,7.07
2018-03-26T06:30:03.781Z,7.08
2018-03-26T06:32:31.231Z,7.19
2018-03-26T06:34:58.647Z,7.11
2018-03-26T06:37:31.624Z,7.11
2018-03-26T06:39:59.076Z,7.29
2018-03-26T06:42:26.537Z,7.42
2018-03-26T06:44:54.011Z,7.19
2018-03-26T06:47:21.449Z,7.11
2018-03-26T06:49:48.882Z,7.29
2018-03-26T06:52:16.340Z,7.30
2018-03-26T06:54:43.807Z,7.26
2018-03-26T06:57:11.606Z,7.18
2018-03-26T06:59:39.367Z,7.13
2018-03-26T07:02:06.883Z,7.12
2018-03-26T07:04:34.314Z,7.07
2018-03-26T07:07:01.767Z,7.22
2018-03-26T07:09:29.225Z,7.44
2018-03-26T07:11:56.699Z,7.42
2018-03-26T07:14:24.308Z,7.58
2018-03-26T07:16:51.746Z,7.60
2018-03-26T07:19:19.199Z,7.09
2018-03-26T07:21:46.617Z,7.23
2018-03-26T07:24:14.067Z,7.29
2018-03-26T07:26:41.511Z,7.09
2018-03-26T07:29:08.967Z,7.22
2018-03-26T07:31:36.471Z,7.40
2018-03-26T07:34:03.927Z,7.19
2018-03-26T07:36:31.560Z,7.16
2018-03-26T07:38:59.045Z,7.31
2018-03-26T07:41:26.500Z,7.58
2018-03-26T07:43:53.979Z,7.53
2018-03-26T07:46:21.464Z,7.64
2018-03-26T07:48:48.973Z,7.79
2018-03-26T07:51:16.823Z,7.96
2018-03-26T07:53:44.257Z,8.01
2018-03-26T07:56:11.766Z,8.25
2018-03-26T07:58:39.210Z,8.35
2018-03-26T08:01:06.712Z,8.39
2018-03-26T08:03:34.234Z,8.29
2018-03-26T08:06:01.656Z,8.46
2018-03-26T08:08:29.763Z,8.49
2018-03-26T08:10:57.250Z,8.64
2018-03-26T08:13:24.806Z,8.77
2018-03-26T08:15:52.562Z,8.95
2018-03-26T08:18:20.060Z,9.02
2018-03-26T08:20:47.521Z,9.13
2018-03-26T08:23:14.979Z,9.25
2018-03-26T08:25:42.442Z,9.34
2018-03-26T08:28:09.905Z,9.49
2018-03-26T08:30:37.369Z,9.54
2018-03-26T08:33:04.843Z,9.99
2018-03-26T08:35:32.275Z,10.31
2018-03-26T08:37:59.776Z,10.49
2018-03-26T08:40:27.239Z,10.82
2018-03-26T08:42:54.676Z,10.56
2018-03-26T08:45:22.225Z,10.67
2018-03-26T08:47:49.651Z,10.83
2018-03-26T08:50:17.277Z,11.06
2018-03-26T08:52:44.668Z,10.86
2018-03-26T08:55:12.130Z,11.20
2018-03-26T08:57:39.589Z,11.31
2018-03-26T09:00:07.263Z,11.19
2018-03-26T09:02:34.785Z,11.35
2018-03-26T09:05:02.233Z,11.19
2018-03-26T09:07:29.757Z,11.17
2018-03-26T09:09:57.262Z,12.16
2018-03-26T09:12:25.395Z,13.03
2018-03-26T09:14:52.908Z,13.58
2018-03-26T09:17:20.374Z,14.01
2018-03-26T09:19:48.185Z,14.04
2018-03-26T09:22:15.664Z,13.70
2018-03-26T09:24:43.112Z,13.26
2018-03-26T09:27:10.584Z,14.63
2018-03-26T09:29:38.081Z,17.14
2018-03-26T09:32:05.837Z,17.99
2018-03-26T09:34:33.369Z,17.93
2018-03-26T09:37:00.810Z,17.03
2018-03-26T09:39:28.282Z,15.48
2018-03-26T09:41:55.810Z,15.17
2018-03-26T09:44:23.382Z,14.94
2018-03-26T09:46:50.844Z,14.45
2018-03-26T09:49:18.303Z,14.83
2018-03-26T09:51:45.805Z,15.38
2018-03-26T09:54:13.267Z,15.14
2018-03-26T09:56:40.707Z,15.31
2018-03-26T09:59:08.295Z,14.76
2018-03-26T10:01:41.621Z,14.75
2018-03-26T10:04:09.091Z,14.62
2018-03-26T10:06:36.664Z,14.61
2018-03-26T10:09:04.894Z,14.17
2018-03-26T10:11:33.063Z,14.26
2018-03-26T10:14:00.592Z,14.23
2018-03-26T10:16:28.129Z,14.07
2018-03-26T10:18:55.568Z,13.68
2018-03-26T10:21:23.161Z,13.93
2018-03-26T10:23:50.698Z,13.81
2018-03-26T10:26:18.270Z,13.70
2018-03-26T10:28:45.710Z,13.74
2018-03-26T10:31:13.237Z,14.06
2018-03-26T10:33:40.598Z,14.04
2018-03-26T10:36:08.067Z,13.98
2018-03-26T10:38:35.516Z,14.06
2018-03-26T10:41:02.945Z,13.71
2018-03-26T10:43:30.424Z,13.13
2018-03-26T10:45:57.956Z,12.79
2018-03-26T10:48:25.390Z,13.07
2018-03-26T10:50:52.890Z,13.17
2018-03-26T10:53:20.428Z,12.73
2018-03-26T10:55:47.853Z,13.23
2018-03-26T10:58:15.329Z,12.64
2018-03-26T11:00:42.855Z,12.74
2018-03-26T11:03:10.316Z,12.70
2018-03-26T11:05:37.778Z,12.79
2018-03-26T11:08:05.242Z,13.20
2018-03-26T11:10:32.715Z,13.25
2018-03-26T11:13:00.134Z,13.35
2018-03-26T11:15:27.695Z,13.48
2018-03-26T11:17:55.179Z,13.19
2018-03-26T11:20:22.649Z,13.54
2018-03-26T11:22:50.113Z,13.81
2018-03-26T11:25:17.666Z,13.09
2018-03-26T11:27:45.135Z,13.25
2018-03-26T11:30:13.058Z,13.44
2018-03-26T11:32:40.573Z,13.33
2018-03-26T11:35:08.290Z,13.10
2018-03-26T11:37:35.792Z,13.20
2018-03-26T11:40:03.382Z,13.24
2018-03-26T11:42:30.924Z,13.41
2018-03-26T11:44:58.429Z,13.19
2018-03-26T11:47:26.085Z,13.13
2018-03-26T11:49:53.527Z,13.04
2018-03-26T11:52:21.589Z,13.25
2018-03-26T11:54:49.330Z,13.11
2018-03-26T11:57:16.814Z,13.20
2018-03-26T11:59:44.288Z,12.86
2018-03-26T12:02:11.889Z,12.99
2018-03-26T12:04:39.405Z,12.96
2018-03-26T12:07:06.884Z,12.86
2018-03-26T12:09:34.365Z,12.95
2018-03-26T12:12:01.910Z,12.84
2018-03-26T12:14:29.447Z,13.05
2018-03-26T12:16:56.897Z,13.00
2018-03-26T12:19:25.336Z,13.31
2018-03-26T12:21:52.809Z,13.20
2018-03-26T12:24:32.175Z,13.73
2018-03-26T12:26:59.628Z,13.91
2018-03-26T12:29:39.190Z,13.42
2018-03-26T12:32:06.994Z,13.31
2018-03-26T12:34:46.346Z,13.76
2018-03-26T12:37:13.803Z,13.50
2018-03-26T12:39:41.279Z,13.64
2018-03-26T12:42:08.767Z,13.78
2018-03-26T12:44:48.207Z,14.32
2018-03-26T12:47:15.648Z,14.32
2018-03-26T12:49:43.124Z,14.62
2018-03-26T12:52:22.378Z,14.48
2018-03-26T12:54:49.894Z,14.32
2018-03-26T13:00:17.729Z,14.27
2018-03-26T13:02:45.474Z,14.00
2018-03-26T13:05:12.961Z,14.12
2018-03-26T13:07:40.521Z,14.39
2018-03-26T13:10:07.999Z,14.63
2018-03-26T13:12:36.051Z,14.49
2018-03-26T13:15:03.670Z,14.69
2018-03-26T13:17:31.273Z,15.17
2018-03-26T13:19:58.889Z,15.05
2018-03-26T13:22:26.440Z,15.39
2018-03-26T13:24:54.481Z,15.17
2018-03-26T13:27:21.975Z,14.57
2018-03-26T13:29:49.451Z,14.89
2018-03-26T13:32:16.946Z,14.44
2018-03-26T13:34:44.414Z,14.26
2018-03-26T13:37:11.891Z,13.65
2018-03-26T13:39:39.348Z,13.30
2018-03-26T13:42:07.284Z,13.32
2018-03-26T13:44:34.753Z,13.59
2018-03-26T13:47:02.259Z,13.08
2018-03-26T13:49:29.857Z,13.01
2018-03-26T13:51:57.332Z,13.05
2018-03-26T13:54:24.819Z,13.05
2018-03-26T13:56:52.753Z,13.43
2018-03-26T13:59:20.302Z,13.32
2018-03-26T14:01:47.732Z,13.09
2018-03-26T14:04:15.532Z,13.34
2018-03-26T14:06:42.959Z,13.52
2018-03-26T14:09:22.064Z,13.11
2018-03-26T14:12:01.352Z,13.29
2018-03-26T14:14:40.717Z,13.36
2018-03-26T14:17:19.699Z,13.29
2018-03-26T14:19:47.176Z,13.38
2018-03-26T14:22:14.641Z,13.23
2018-03-26T14:24:42.112Z,12.74
2018-03-26T14:27:09.548Z,12.47
2018-03-26T14:29:37.038Z,12.62
2018-03-26T14:32:04.472Z,12.50
2018-03-26T14:34:32.037Z,12.30
2018-03-26T14:37:00.094Z,12.16
2018-03-26T14:39:27.554Z,12.20
2018-03-26T14:41:55.083Z,12.33
2018-03-26T14:44:22.657Z,12.30
2018-03-26T14:46:50.393Z,11.96
2018-03-26T14:49:17.910Z,11.96
2018-03-26T14:51:45.531Z,11.64
2018-03-26T14:54:12.986Z,11.94
2018-03-26T14:56:40.434Z,11.71
2018-03-26T14:59:07.926Z,11.86
2018-03-26T15:01:35.372Z,11.46
2018-03-26T15:04:02.834Z,11.58
2018-03-26T15:06:30.265Z,11.56
2018-03-26T15:08:57.780Z,11.70
2018-03-26T15:11:25.221Z,11.73
2018-03-26T15:13:52.683Z,11.78
